Time;durP1;ratioP1;P1;durP2;ratioP2;P2;SDS_P1;SDS_P2;PMS_P1;PMS_P2;Temp;Humidity;BMP_temperature;BMP_pressure;BME280_temperature;BME280_humidity;BME280_pressure;Samples;Min_cycle;Max_cycle;Signal;HPM_P1;HPM_P2
2023/05/12 00:00:48;;;;;;;2.13;1.60;;;;;;;12.92;100.00;98917.84;4847626;29;20258;-78
2023/05/12 00:03:16;;;;;;;4.30;1.70;;;;;;;12.81;100.00;98921.34;4906800;28;20216;-78
2023/05/12 00:05:45;;;;;;;2.30;1.93;;;;;;;12.67;100.00;98927.72;4969362;28;20196;-79
2023/05/12 00:08:13;;;;;;;1.90;1.70;;;;;;;12.66;100.00;98928.69;4966783;28;20667;-79
2023/05/12 00:10:43;;;;;;;2.00;1.80;;;;;;;12.85;100.00;98928.13;4962082;28;20231;-79
2023/05/12 00:13:17;;;;;;;1.90;1.70;;;;;;;12.90;100.00;98918.81;4965513;28;20681;-78
2023/05/12 00:15:47;;;;;;;7.07;1.70;;;;;;;12.79;100.00;98924.13;4972879;28;20226;-78
2023/05/12 00:18:15;;;;;;;2.13;1.87;;;;;;;12.78;100.00;98913.63;4964563;28;20199;-79
2023/05/12 00:20:44;;;;;;;4.13;1.70;;;;;;;12.71;100.00;98915.88;4964245;28;20212;-78
2023/05/12 00:23:16;;;;;;;5.23;1.87;;;;;;;12.67;100.00;98917.09;4969153;28;20235;-78
2023/05/12 00:25:46;;;;;;;1.77;1.67;;;;;;;12.66;100.00;98925.19;4969185;28;20196;-78
2023/05/12 00:28:14;;;;;;;2.57;1.80;;;;;;;12.71;100.00;98921.19;4967258;28;20187;-78
2023/05/12 00:30:42;;;;;;;3.77;1.60;;;;;;;12.70;100.00;98921.31;4968981;28;20215;-78
2023/05/12 00:33:11;;;;;;;3.33;1.53;;;;;;;12.67;100.00;98917.09;4970890;28;20207;-78
2023/05/12 00:35:41;;;;;;;2.50;2.10;;;;;;;12.71;100.00;98918.53;4966366;28;20251;-78
2023/05/12 00:38:09;;;;;;;3.53;1.80;;;;;;;12.71;100.00;98910.56;4972390;28;20195;-78
2023/05/12 00:40:38;;;;;;;3.33;2.10;;;;;;;12.58;100.00;98917.78;4965665;28;20206;-78
2023/05/12 00:43:08;;;;;;;2.30;1.70;;;;;;;12.53;100.00;98912.81;4965659;28;20259;-78
2023/05/12 00:45:37;;;;;;;2.10;1.90;;;;;;;12.55;100.00;98910.06;4966963;28;20258;-78
2023/05/12 00:48:06;;;;;;;2.40;2.03;;;;;;;12.50;100.00;98913.06;4962576;28;20192;-79
2023/05/12 00:50:35;;;;;;;2.90;2.10;;;;;;;12.49;100.00;98910.53;4969698;28;20227;-78
2023/05/12 00:53:04;;;;;;;2.53;2.00;;;;;;;12.37;100.00;98911.47;4964189;28;20222;-78
2023/05/12 00:55:33;;;;;;;6.80;2.20;;;;;;;12.49;100.00;98907.88;4970330;28;20246;-78
2023/05/12 00:58:02;;;;;;;2.60;2.40;;;;;;;12.40;100.00;98909.41;4965380;28;20203;-77
2023/05/12 01:00:32;;;;;;;2.80;2.50;;;;;;;12.42;100.00;98910.13;4967871;28;20195;-78
2023/05/12 01:03:01;;;;;;;3.20;2.30;;;;;;;12.47;100.00;98910.66;4972963;28;20231;-78
2023/05/12 01:05:33;;;;;;;3.87;2.27;;;;;;;12.41;100.00;98921.72;4967834;28;20200;-78
2023/05/12 01:08:03;;;;;;;3.13;2.13;;;;;;;12.48;100.00;98911.50;4919526;28;20207;-78
2023/05/12 01:10:32;;;;;;;4.33;2.50;;;;;;;12.42;100.00;98912.78;4966962;28;20218;-78
2023/05/12 01:13:00;;;;;;;2.63;2.30;;;;;;;12.36;100.00;98912.41;4969111;28;20203;-78
2023/05/12 01:15:32;;;;;;;6.27;2.53;;;;;;;12.27;100.00;98920.13;4938790;28;20192;-79
2023/05/12 01:18:04;;;;;;;2.50;2.20;;;;;;;12.44;100.00;98916.16;4930411;29;20200;-78
2023/05/12 01:20:35;;;;;;;2.50;2.30;;;;;;;12.42;100.00;98920.75;4930411;29;20699;-78
2023/05/12 01:23:04;;;;;;;3.27;2.43;;;;;;;12.36;100.00;98917.75;4924272;29;20272;-78
2023/05/12 01:25:37;;;;;;;2.57;2.37;;;;;;;12.42;100.00;98920.75;4930288;29;20212;-79
2023/05/12 01:28:08;;;;;;;5.13;2.60;;;;;;;12.36;100.00;98918.59;4926703;29;20209;-78
2023/05/12 01:30:40;;;;;;;2.73;2.50;;;;;;;12.19;100.00;98919.00;4930435;29;20217;-78
2023/05/12 01:33:09;;;;;;;4.50;2.77;;;;;;;12.19;100.00;98919.84;4928650;29;20221;-78
2023/05/12 01:35:37;;;;;;;3.07;2.77;;;;;;;12.07;100.00;98919.91;4935820;28;20266;-78
2023/05/12 01:38:08;;;;;;;3.97;2.50;;;;;;;12.24;100.00;98924.78;4970240;28;20196;-78
2023/05/12 01:40:37;;;;;;;5.80;2.90;;;;;;;12.24;100.00;98925.63;4968909;28;20192;-78
2023/05/12 01:43:06;;;;;;;5.40;2.90;;;;;;;12.20;100.00;98929.50;4965359;28;20258;-78
2023/05/12 01:45:35;;;;;;;5.00;3.40;;;;;;;12.27;100.00;98933.41;4968909;28;20263;-78
2023/05/12 01:48:04;;;;;;;3.80;3.40;;;;;;;12.26;100.00;98931.69;4967493;28;20603;-79
2023/05/12 01:50:32;;;;;;;4.63;3.30;;;;;;;12.23;100.00;98926.59;4967670;28;20200;-78
2023/05/12 01:53:01;;;;;;;3.53;3.20;;;;;;;12.19;100.00;98930.47;4965953;28;20215;-79
2023/05/12 01:55:29;;;;;;;4.13;2.87;;;;;;;12.17;100.00;98934.19;4971401;28;20200;-78
2023/05/12 01:57:58;;;;;;;4.80;3.30;;;;;;;12.13;100.00;98940.66;4971091;28;20203;-78
2023/05/12 02:00:27;;;;;;;4.20;3.63;;;;;;;12.07;100.00;98941.16;4965813;28;20270;-78
2023/05/12 02:02:56;;;;;;;4.10;3.70;;;;;;;12.21;100.00;98948.94;4967862;28;20235;-78
2023/05/12 02:05:25;;;;;;;4.97;4.40;;;;;;;12.39;100.00;98941.41;4962778;28;20651;-77
2023/05/12 02:07:53;;;;;;;4.10;3.70;;;;;;;12.17;100.00;98948.31;4970934;28;20203;-78
2023/05/12 02:10:22;;;;;;;4.87;4.37;;;;;;;12.29;100.00;98939.44;4928518;29;20245;-78
2023/05/12 02:12:50;;;;;;;4.20;3.80;;;;;;;12.37;100.00;98943.34;4923172;29;20594;-79
2023/05/12 02:15:20;;;;;;;5.90;4.30;;;;;;;12.41;100.00;98936.81;4926539;29;20237;-78
2023/05/12 02:17:53;;;;;;;4.90;4.40;;;;;;;12.40;100.00;98949.25;4923204;29;20248;-78
2023/05/12 02:20:22;;;;;;;6.27;4.53;;;;;;;12.42;100.00;98946.47;4923992;29;20256;-78
2023/05/12 02:22:52;;;;;;;6.13;4.80;;;;;;;12.18;100.00;98954.47;4925882;29;20209;-78
2023/05/12 02:25:21;;;;;;;4.87;4.40;;;;;;;12.26;100.00;98962.72;4925516;29;20193;-79
2023/05/12 02:27:49;;;;;;;4.93;4.37;;;;;;;12.29;100.00;98951.88;4941133;28;20278;-78
2023/05/12 02:30:18;;;;;;;7.03;5.00;;;;;;;12.19;100.00;98958.81;4964898;28;20204;-78
2023/05/12 02:32:46;;;;;;;4.80;4.30;;;;;;;12.20;100.00;98964.00;4965576;28;20678;-78
2023/05/12 02:35:16;;;;;;;7.40;4.90;;;;;;;12.16;100.00;98962.56;4965547;28;20208;-79
2023/05/12 02:37:45;;;;;;;5.50;5.00;;;;;;;12.34;100.00;98965.63;4970098;28;20191;-78
2023/05/12 02:40:14;;;;;;;6.77;5.23;;;;;;;12.31;100.00;98969.38;4974314;28;20251;-78
2023/05/12 02:42:44;;;;;;;7.43;4.87;;;;;;;12.35;100.00;98963.81;4971728;28;20243;-78
2023/05/12 02:45:14;;;;;;;5.60;5.00;;;;;;;12.36;100.00;98966.38;4912713;29;20206;-78
2023/05/12 02:47:42;;;;;;;5.37;4.83;;;;;;;12.35;100.00;98967.31;4910455;29;20253;-78
2023/05/12 02:50:13;;;;;;;6.50;4.80;;;;;;;12.37;100.00;98968.09;4884688;29;20235;-78
2023/05/12 02:52:42;;;;;;;5.40;4.90;;;;;;;12.26;100.00;98974.19;4912484;29;20293;-78
2023/05/12 02:55:11;;;;;;;6.67;4.80;;;;;;;12.22;100.00;98975.34;4909540;29;20206;-78
2023/05/12 02:57:39;;;;;;;5.40;4.77;;;;;;;12.32;100.00;98975.53;4914863;29;20254;-78
2023/05/12 03:00:08;;;;;;;6.07;4.73;;;;;;;12.39;100.00;98968.81;4911111;29;20206;-78
2023/05/12 03:02:38;;;;;;;5.90;5.30;;;;;;;12.20;100.00;98981.75;4874090;28;20228;-79
2023/05/12 03:05:09;;;;;;;5.63;5.03;;;;;;;12.19;100.00;98980.06;4973898;28;20203;-78
2023/05/12 03:07:37;;;;;;;5.27;4.77;;;;;;;12.13;100.00;98975.19;4967872;28;20708;-78
2023/05/12 03:10:09;;;;;;;6.30;5.20;;;;;;;12.10;100.00;98986.03;4976681;28;20694;-78
2023/05/12 03:12:39;;;;;;;6.80;5.20;;;;;;;12.24;100.00;98984.06;4967581;28;20227;-78
2023/05/12 03:15:09;;;;;;;6.57;5.37;;;;;;;12.28;100.00;98992.66;4978274;28;20191;-78
2023/05/12 03:17:37;;;;;;;6.97;5.37;;;;;;;12.36;100.00;98992.94;4974791;28;20200;-78
2023/05/12 03:20:06;;;;;;;5.27;4.57;;;;;;;12.36;100.00;98992.09;4977245;28;20199;-78
2023/05/12 03:22:36;;;;;;;5.23;4.63;;;;;;;12.31;100.00;98990.63;4976073;28;20202;-79
2023/05/12 03:25:05;;;;;;;6.03;5.20;;;;;;;12.27;100.00;98993.63;4976960;28;20307;-78
2023/05/12 03:27:35;;;;;;;5.90;5.07;;;;;;;12.13;100.00;98988.47;4976653;28;20706;-78
2023/05/12 03:30:05;;;;;;;5.90;5.17;;;;;;;12.12;100.00;98994.72;4982984;28;20196;-78
2023/05/12 03:32:33;;;;;;;5.17;4.67;;;;;;;12.23;100.00;98998.28;4968712;28;20220;-78
2023/05/12 03:35:02;;;;;;;5.67;5.13;;;;;;;12.10;100.00;98999.31;4973678;28;20216;-78
2023/05/12 03:37:30;;;;;;;5.43;4.60;;;;;;;12.18;100.00;98995.16;4970068;28;20243;-78
2023/05/12 03:39:59;;;;;;;5.63;4.80;;;;;;;12.09;100.00;99011.75;4974397;28;20203;-79
2023/05/12 03:42:28;;;;;;;6.13;5.03;;;;;;;12.32;100.00;99012.72;4914042;29;20233;-78
2023/05/12 03:44:58;;;;;;;7.07;5.30;;;;;;;12.27;100.00;99013.06;4909515;29;20286;-79
2023/05/12 03:47:27;;;;;;;6.57;5.17;;;;;;;12.25;100.00;98998.19;4908402;29;20202;-78
2023/05/12 03:49:57;;;;;;;8.47;5.00;;;;;;;12.03;100.00;99014.84;4907945;29;20212;-78
2023/05/12 03:52:25;;;;;;;4.93;4.43;;;;;;;12.17;100.00;99016.50;4894461;29;20219;-78
2023/05/12 03:54:54;;;;;;;6.53;4.97;;;;;;;12.02;100.00;99011.34;4890629;29;20214;-78
2023/05/12 03:57:22;;;;;;;5.37;4.87;;;;;;;12.16;100.00;99013.00;4889084;29;20233;-78
2023/05/12 03:59:51;;;;;;;6.70;5.10;;;;;;;12.00;100.00;99012.41;4847653;29;20242;-78
2023/05/12 04:02:22;;;;;;;6.30;4.93;;;;;;;12.26;100.00;99013.19;4889111;29;20232;-78
2023/05/12 04:04:50;;;;;;;5.37;4.87;;;;;;;12.09;100.00;99013.56;4889545;29;20230;-78
2023/05/12 04:07:19;;;;;;;5.80;5.27;;;;;;;12.06;100.00;99019.06;4894626;29;20270;-78
2023/05/12 04:09:48;;;;;;;6.27;4.73;;;;;;;12.04;100.00;99027.16;4892641;29;20201;-78
2023/05/12 04:12:17;;;;;;;6.27;4.97;;;;;;;12.08;100.00;99019.81;4909959;29;20225;-79
2023/05/12 04:14:45;;;;;;;5.23;4.70;;;;;;;11.97;100.00;99026.75;4907063;29;20534;-79
2023/05/12 04:17:14;;;;;;;6.30;4.80;;;;;;;12.04;100.00;99025.34;4907474;29;20214;-79
2023/05/12 04:19:44;;;;;;;6.87;5.97;;;;;;;11.88;100.00;99030.06;4911339;29;20657;-78
2023/05/12 04:22:12;;;;;;;5.73;4.90;;;;;;;11.89;100.00;99036.22;4911109;29;20202;-79
2023/05/12 04:24:40;;;;;;;6.47;5.33;;;;;;;12.01;100.00;99041.50;4942703;28;20304;-78
2023/05/12 04:27:09;;;;;;;6.10;5.50;;;;;;;11.95;100.00;99046.38;4971408;28;20215;-79
2023/05/12 04:29:38;;;;;;;6.63;5.33;;;;;;;11.94;100.00;99042.88;4940039;28;20206;-79
2023/05/12 04:32:07;;;;;;;7.47;5.10;;;;;;;12.00;100.00;99047.75;4966987;28;20208;-79
2023/05/12 04:34:38;;;;;;;8.13;5.23;;;;;;;11.99;100.00;99050.53;4966758;28;20279;-78
2023/05/12 04:37:08;;;;;;;5.50;5.00;;;;;;;11.97;100.00;99044.50;4964877;28;20247;-78
2023/05/12 04:39:37;;;;;;;5.43;4.93;;;;;;;12.08;100.00;99051.69;4969864;28;20196;-79
2023/05/12 04:42:06;;;;;;;6.07;5.17;;;;;;;12.01;100.00;99056.56;4964979;28;20258;-78
2023/05/12 04:44:34;;;;;;;6.00;5.23;;;;;;;12.12;100.00;99055.81;4913744;29;20281;-78
2023/05/12 04:47:03;;;;;;;7.93;5.87;;;;;;;12.13;100.00;99058.34;4856840;29;20256;-78
2023/05/12 04:49:31;;;;;;;9.77;7.43;;;;;;;12.12;100.00;99069.06;4839544;29;20252;-79
2023/05/12 04:52:00;;;;;;;7.23;6.40;;;;;;;12.07;100.00;99063.25;4840692;29;20200;-79
2023/05/12 04:54:30;;;;;;;7.73;5.70;;;;;;;12.19;100.00;99071.19;4837732;29;20220;-78
2023/05/12 04:57:00;;;;;;;7.60;6.20;;;;;;;12.14;100.00;99067.16;4841659;29;20209;-79
2023/05/12 04:59:30;;;;;;;6.73;5.27;;;;;;;12.18;100.00;99072.16;4838432;29;20212;-78
2023/05/12 05:01:59;;;;;;;10.47;6.43;;;;;;;12.23;100.00;99070.00;4838045;29;20241;-78
2023/05/12 05:04:27;;;;;;;5.83;5.23;;;;;;;12.29;100.00;99076.69;4839931;29;20196;-78
2023/05/12 05:06:56;;;;;;;6.30;5.70;;;;;;;12.12;100.00;99077.88;4867531;29;20206;-78
2023/05/12 05:09:24;;;;;;;5.67;5.17;;;;;;;12.24;100.00;99082.31;4943830;28;20199;-78
2023/05/12 05:11:56;;;;;;;7.23;6.10;;;;;;;12.34;100.00;99077.19;4967828;28;20195;-79
2023/05/12 05:14:25;;;;;;;11.37;7.33;;;;;;;12.30;100.00;99081.88;4969082;28;20215;-78
2023/05/12 05:16:53;;;;;;;5.23;4.80;;;;;;;12.33;100.00;99080.78;4963279;28;20207;-79
2023/05/12 05:19:22;;;;;;;7.17;5.60;;;;;;;12.27;100.00;99083.91;4968149;28;20199;-78
2023/05/12 05:22:10;;;;;;;5.63;5.13;;;;;;;12.27;100.00;99075.94;4974578;28;20355;-78
2023/05/12 05:24:40;;;;;;;6.00;5.30;;;;;;;12.34;100.00;99085.16;4962823;28;20207;-78
2023/05/12 05:27:09;;;;;;;5.87;5.20;;;;;;;12.47;100.00;99085.97;4968143;28;20199;-79
2023/05/12 05:29:38;;;;;;;8.47;5.23;;;;;;;12.53;100.00;99090.81;4969106;28;20211;-78
2023/05/12 05:32:07;;;;;;;6.53;5.17;;;;;;;12.50;100.00;99093.72;4965481;28;20200;-78
2023/05/12 05:34:35;;;;;;;8.23;5.57;;;;;;;12.53;100.00;99098.78;4965046;28;20279;-78
2023/05/12 05:37:04;;;;;;;5.87;5.27;;;;;;;12.52;100.00;99093.59;4965975;28;20208;-78
2023/05/12 05:39:33;;;;;;;5.80;5.30;;;;;;;12.46;100.00;99099.38;4966352;28;20195;-78
2023/05/12 05:42:01;;;;;;;5.40;4.83;;;;;;;12.48;100.00;99103.59;4965566;28;20199;-78
2023/05/12 05:44:32;;;;;;;7.13;5.13;;;;;;;12.55;100.00;99101.38;4970409;28;20249;-78
2023/05/12 05:47:01;;;;;;;6.20;5.10;;;;;;;12.59;100.00;99098.34;4911823;29;20206;-78
2023/05/12 05:49:30;;;;;;;6.90;6.27;;;;;;;12.68;100.00;99101.31;4910563;29;20677;-78
2023/05/12 05:52:00;;;;;;;7.00;6.30;;;;;;;12.73;100.00;99099.13;4905941;29;20210;-78
2023/05/12 05:54:29;;;;;;;7.57;5.27;;;;;;;12.77;100.00;99105.94;4907854;29;20218;-78
2023/05/12 05:56:59;;;;;;;6.47;4.50;;;;;;;12.87;100.00;99106.94;4908569;29;20206;-78
2023/05/12 05:59:28;;;;;;;8.37;5.60;;;;;;;12.73;100.00;99102.63;4906806;29;20217;-78
2023/05/12 06:01:58;;;;;;;8.97;5.40;;;;;;;12.87;100.00;99107.81;4909462;29;20307;-78
2023/05/12 06:04:27;;;;;;;8.67;7.30;;;;;;;12.84;100.00;99109.84;4914065;28;20208;-78
2023/05/12 06:06:55;;;;;;;8.87;6.20;;;;;;;12.84;100.00;99113.34;4973919;28;20194;-78
2023/05/12 06:09:24;;;;;;;8.33;7.17;;;;;;;12.82;100.00;99109.94;4972643;28;20208;-78
2023/05/12 06:11:52;;;;;;;7.80;7.00;;;;;;;12.93;100.00;99111.78;4971199;28;20192;-78
2023/05/12 06:14:21;;;;;;;8.77;6.43;;;;;;;12.96;100.00;99108.09;4970764;28;20219;-78
2023/05/12 06:16:49;;;;;;;7.63;5.67;;;;;;;12.94;100.00;99116.19;4970765;28;20192;-78
2023/05/12 06:19:19;;;;;;;8.90;6.93;;;;;;;12.97;100.00;99123.06;4970323;28;20242;-78
2023/05/12 06:21:48;;;;;;;7.07;5.10;;;;;;;12.77;100.00;99122.72;4969902;28;20250;-78
2023/05/12 06:24:16;;;;;;;5.30;4.80;;;;;;;12.94;100.00;99132.13;4973573;28;20203;-78
2023/05/12 06:26:45;;;;;;;9.13;5.30;;;;;;;12.84;100.00;99134.63;4969662;28;20223;-78
2023/05/12 06:29:14;;;;;;;5.30;4.80;;;;;;;13.08;100.00;99129.28;4966408;28;20196;-78
2023/05/12 06:31:42;;;;;;;7.10;4.90;;;;;;;12.95;100.00;99122.34;4968159;28;20204;-79
2023/05/12 06:34:11;;;;;;;11.40;6.23;;;;;;;13.18;100.00;99129.44;4967305;28;20230;-77
2023/05/12 06:36:42;;;;;;;5.43;4.80;;;;;;;13.30;100.00;99125.03;4967239;28;20262;-78
2023/05/12 06:39:10;;;;;;;5.80;4.80;;;;;;;13.20;100.00;99124.88;4969877;28;20263;-78
2023/05/12 06:41:38;;;;;;;5.37;4.53;;;;;;;13.25;100.00;99124.53;4972815;28;20204;-78
2023/05/12 06:44:11;;;;;;;7.13;6.43;;;;;;;13.22;100.00;99119.44;4970207;28;20200;-78
2023/05/12 06:46:40;;;;;;;11.73;10.53;;;;;;;13.30;100.00;99117.03;4977080;28;20247;-78
2023/05/12 06:49:08;;;;;;;10.00;8.73;;;;;;;13.17;100.00;99119.75;4964618;28;20206;-79
2023/05/12 06:51:36;;;;;;;8.97;7.43;;;;;;;13.25;100.00;99122.72;4970068;28;20199;-78
2023/05/12 06:54:07;;;;;;;9.90;5.20;;;;;;;13.31;100.00;99116.94;4966646;28;20223;-79
2023/05/12 06:56:35;;;;;;;7.93;5.43;;;;;;;13.32;100.00;99129.28;4964059;28;20207;-78
2023/05/12 06:59:04;;;;;;;6.57;4.57;;;;;;;13.42;100.00;99129.44;4969735;28;20202;-78
2023/05/12 07:01:32;;;;;;;5.37;4.60;;;;;;;13.46;100.00;99130.88;4965507;28;20212;-78
2023/05/12 07:04:01;;;;;;;5.27;4.77;;;;;;;13.52;100.00;99137.56;4972704;28;20223;-78
2023/05/12 07:06:31;;;;;;;5.30;4.67;;;;;;;13.49;100.00;99132.47;4968496;28;20200;-79
2023/05/12 07:08:59;;;;;;;4.97;4.47;;;;;;;13.76;100.00;99141.00;4966794;28;20195;-79
2023/05/12 07:11:31;;;;;;;7.77;4.83;;;;;;;13.68;100.00;99140.72;4966709;28;20647;-79
2023/05/12 07:14:00;;;;;;;5.63;4.90;;;;;;;13.72;100.00;99140.38;4967963;28;20227;-78
2023/05/12 07:16:28;;;;;;;5.23;4.73;;;;;;;13.76;100.00;99138.31;4969329;28;20328;-79
2023/05/12 07:18:57;;;;;;;6.13;5.17;;;;;;;13.82;100.00;99135.19;4970225;28;20238;-78
2023/05/12 07:21:26;;;;;;;7.07;4.53;;;;;;;13.71;100.00;99135.19;4971206;28;20195;-79
2023/05/12 07:23:55;;;;;;;5.63;4.80;;;;;;;13.88;100.00;99132.03;4970484;28;20210;-78
2023/05/12 07:26:25;;;;;;;5.10;4.60;;;;;;;13.98;100.00;99126.84;4970299;28;20207;-78
2023/05/12 07:28:55;;;;;;;5.70;5.10;;;;;;;14.23;100.00;99128.44;4966713;28;20200;-79
2023/05/12 07:31:24;;;;;;;5.13;4.63;;;;;;;14.35;100.00;99126.59;4972625;28;20263;-78
2023/05/12 07:33:53;;;;;;;5.13;4.63;;;;;;;14.32;100.00;99120.56;4962676;28;20204;-79
2023/05/12 07:36:21;;;;;;;4.57;4.17;;;;;;;14.18;100.00;99123.44;4973156;28;20295;-78
2023/05/12 07:38:49;;;;;;;4.77;4.13;;;;;;;14.52;100.00;99121.66;4973398;28;20198;-78
2023/05/12 07:41:18;;;;;;;5.27;4.43;;;;;;;14.51;100.00;99119.09;4971654;28;20667;-78
2023/05/12 07:43:46;;;;;;;5.83;4.63;;;;;;;14.18;100.00;99109.28;4973438;28;20196;-78
2023/05/12 07:46:16;;;;;;;4.80;4.30;;;;;;;14.15;100.00;99105.06;4937590;28;20208;-78
2023/05/12 07:48:45;;;;;;;5.07;4.57;;;;;;;14.31;100.00;99105.53;4971048;28;20651;-78
2023/05/12 07:51:13;;;;;;;8.30;5.83;;;;;;;14.42;100.00;99104.66;4975910;28;20667;-78
2023/05/12 07:53:42;;;;;;;11.07;9.40;;;;;;;14.41;100.00;99104.78;4970616;28;20207;-78
2023/05/12 07:56:10;;;;;;;8.27;5.80;;;;;;;14.42;100.00;99103.81;4968029;28;20227;-78
2023/05/12 07:58:39;;;;;;;5.40;4.90;;;;;;;14.51;100.00;99109.28;4972017;28;20655;-78
2023/05/12 08:01:09;;;;;;;5.77;5.17;;;;;;;14.35;100.00;99105.28;4969379;28;20199;-79
2023/05/12 08:03:39;;;;;;;5.30;4.80;;;;;;;14.43;100.00;99103.69;4969431;28;20235;-78
2023/05/12 08:06:08;;;;;;;5.37;4.87;;;;;;;14.37;100.00;99101.50;4970870;28;20245;-79
2023/05/12 08:08:37;;;;;;;5.77;4.80;;;;;;;14.31;100.00;99105.53;4975696;28;20192;-78
2023/05/12 08:11:05;;;;;;;6.57;4.53;;;;;;;14.35;100.00;99114.13;4970420;28;20192;-78
2023/05/12 08:13:34;;;;;;;5.53;4.90;;;;;;;14.49;100.00;99108.56;4912155;29;20205;-78
2023/05/12 08:16:02;;;;;;;5.87;5.37;;;;;;;14.69;100.00;99111.44;4907866;29;20764;-79
2023/05/12 08:18:31;;;;;;;5.50;4.73;;;;;;;14.69;100.00;99104.28;4910773;29;20204;-79
2023/05/12 08:21:01;;;;;;;9.00;6.33;;;;;;;14.71;100.00;99105.00;4911572;29;20213;-78
2023/05/12 08:23:29;;;;;;;7.47;4.70;;;;;;;14.99;100.00;99103.56;4908730;29;20205;-78
2023/05/12 08:25:57;;;;;;;5.47;4.47;;;;;;;14.76;100.00;99104.59;4911507;29;20368;-79
2023/05/12 08:28:26;;;;;;;4.83;4.20;;;;;;;14.82;100.00;99104.97;4910654;29;20209;-79
2023/05/12 08:30:54;;;;;;;4.77;4.30;;;;;;;14.89;100.00;99102.66;4917616;28;20199;-78
2023/05/12 08:33:23;;;;;;;6.53;5.00;;;;;;;15.03;100.00;99104.16;4961693;28;20218;-79
2023/05/12 08:35:52;;;;;;;6.23;4.90;;;;;;;15.12;100.00;99098.06;4972359;28;20270;-79
2023/05/12 08:38:22;;;;;;;5.30;4.77;;;;;;;15.08;100.00;99101.97;4964951;28;20203;-79
2023/05/12 08:41:03;;;;;;;6.27;5.67;;;;;;;15.11;100.00;99097.22;4966389;28;20204;-79
2023/05/12 08:43:38;;;;;;;5.53;4.80;;;;;;;15.21;100.00;99101.78;4969540;28;20203;-78
2023/05/12 08:46:07;;;;;;;5.93;4.40;;;;;;;15.24;100.00;99102.34;4952821;29;20192;-79
2023/05/12 08:48:39;;;;;;;5.20;4.70;;;;;;;15.34;100.00;99100.59;4942681;29;20228;-79
2023/05/12 08:51:10;;;;;;;5.03;4.40;;;;;;;15.54;100.00;99103.41;4952817;28;20192;-79
2023/05/12 08:53:42;;;;;;;4.93;4.50;;;;;;;15.41;100.00;99104.44;4951851;29;20217;-79
2023/05/12 08:56:12;;;;;;;5.10;4.60;;;;;;;15.35;100.00;99112.16;4950461;29;20275;-79
2023/05/12 08:58:46;;;;;;;5.27;4.40;;;;;;;15.23;100.00;99103.34;4949444;29;20208;-79
2023/05/12 09:01:19;;;;;;;4.80;4.40;;;;;;;15.39;100.00;99111.75;4949145;29;20199;-79
2023/05/12 09:03:47;;;;;;;6.70;4.70;;;;;;;15.37;100.00;99110.19;4952768;28;20242;-79
2023/05/12 09:06:17;;;;;;;6.70;4.93;;;;;;;15.42;100.00;99103.47;4961779;28;20242;-79
2023/05/12 09:08:46;;;;;;;5.60;4.23;;;;;;;15.42;100.00;99111.47;4965519;28;20207;-78
2023/05/12 09:11:17;;;;;;;7.13;4.50;;;;;;;15.67;100.00;99106.75;4962368;28;20204;-79
2023/05/12 09:13:52;;;;;;;5.20;4.70;;;;;;;15.46;100.00;99104.91;4965769;28;20199;-79
2023/05/12 09:16:24;;;;;;;5.30;4.80;;;;;;;15.24;100.00;99109.50;4965664;28;20675;-79
2023/05/12 09:18:55;;;;;;;5.90;4.50;;;;;;;15.09;100.00;99109.84;4967815;28;20196;-78
2023/05/12 09:21:25;;;;;;;5.23;4.67;;;;;;;15.31;100.00;99102.69;4967972;28;20214;-79
2023/05/12 09:23:56;;;;;;;4.70;4.30;;;;;;;15.23;100.00;99097.16;4969792;28;20212;-78
2023/05/12 09:26:26;;;;;;;4.90;4.40;;;;;;;15.12;100.00;99103.38;4969290;28;20248;-78
2023/05/12 09:28:56;;;;;;;5.07;4.40;;;;;;;15.32;100.00;99104.38;4966446;28;20566;-78
2023/05/12 09:31:26;;;;;;;6.63;4.33;;;;;;;15.44;100.00;99095.31;4974129;28;20239;-78
2023/05/12 09:33:55;;;;;;;5.20;4.70;;;;;;;15.57;100.00;99100.50;4967212;28;20200;-78
2023/05/12 09:36:25;;;;;;;5.80;4.40;;;;;;;15.79;100.00;99100.34;4968797;28;20227;-78
2023/05/12 09:39:03;;;;;;;5.70;4.53;;;;;;;15.68;100.00;99108.44;4967100;28;20203;-78
2023/05/12 09:41:32;;;;;;;5.73;4.70;;;;;;;15.75;100.00;99104.28;4970962;28;20663;-78
2023/05/12 09:44:00;;;;;;;6.37;4.43;;;;;;;15.83;100.00;99114.31;4910445;29;20204;-78
2023/05/12 09:46:28;;;;;;;5.67;4.50;;;;;;;15.82;100.00;99104.59;4908819;29;20206;-78
2023/05/12 09:48:57;;;;;;;7.17;4.43;;;;;;;15.74;100.00;99095.44;4906743;29;20194;-78
2023/05/12 09:51:28;;;;;;;5.03;4.27;;;;;;;16.03;100.00;99092.91;4907603;29;20196;-78
2023/05/12 09:53:57;;;;;;;4.77;4.37;;;;;;;16.09;100.00;99096.00;4909618;29;20205;-78
2023/05/12 09:56:28;;;;;;;4.77;4.30;;;;;;;16.28;100.00;99088.88;4904686;29;20224;-78
2023/05/12 09:58:58;;;;;;;4.80;4.33;;;;;;;16.20;100.00;99086.03;4911874;29;20237;-78
2023/05/12 10:01:29;;;;;;;5.33;4.40;;;;;;;16.47;100.00;99085.41;4925441;28;20254;-78
2023/05/12 10:03:59;;;;;;;4.40;3.97;;;;;;;16.69;100.00;99078.16;4966223;28;20248;-78
2023/05/12 10:06:28;;;;;;;7.43;4.60;;;;;;;16.47;100.00;99085.41;4971174;28;20259;-78
2023/05/12 10:09:04;;;;;;;4.20;3.87;;;;;;;16.55;100.00;99082.91;4970820;28;20195;-79
2023/05/12 10:11:35;;;;;;;4.83;4.10;;;;;;;16.63;100.00;99079.56;4967824;28;20196;-78
2023/05/12 10:14:03;;;;;;;6.10;3.93;;;;;;;16.61;100.00;99076.19;4970896;28;20199;-78
2023/05/12 10:16:33;;;;;;;4.87;4.17;;;;;;;16.63;100.00;99071.53;4973896;28;20230;-78
2023/05/12 10:19:06;;;;;;;5.20;4.70;;;;;;;16.79;100.00;99071.00;4970082;28;20196;-78
2023/05/12 10:21:36;;;;;;;7.60;4.07;;;;;;;16.89;100.00;99066.53;4973595;28;20223;-78
2023/05/12 10:24:06;;;;;;;5.77;3.70;;;;;;;17.22;100.00;99067.91;4964664;28;20204;-78
2023/05/12 10:26:38;;;;;;;4.90;4.30;;;;;;;17.30;100.00;99070.72;4967833;28;20340;-79
2023/05/12 10:29:07;;;;;;;5.87;3.70;;;;;;;17.20;100.00;99075.25;4973920;28;20207;-79
2023/05/12 10:31:37;;;;;;;5.83;3.60;;;;;;;17.21;100.00;99065.38;4970457;28;20237;-79
2023/05/12 10:34:06;;;;;;;4.97;3.73;;;;;;;17.27;100.00;99064.78;4964989;28;20290;-79
2023/05/12 10:36:46;;;;;;;4.77;3.60;;;;;;;17.30;100.00;99075.22;4969496;28;20697;-79
2023/05/12 10:39:15;;;;;;;4.50;3.60;;;;;;;17.07;100.00;99066.63;4970734;28;20203;-78
2023/05/12 10:41:45;;;;;;;4.70;3.70;;;;;;;16.97;100.00;99071.16;4964787;28;20203;-79
2023/05/12 10:44:13;;;;;;;4.13;3.53;;;;;;;16.98;100.00;99067.50;4968395;28;20196;-79
2023/05/12 10:46:42;;;;;;;7.67;3.60;;;;;;;17.21;100.00;99060.88;4965439;28;20258;-78
2023/05/12 10:49:14;;;;;;;11.27;9.30;;;;;;;17.31;100.00;99063.53;4969652;28;20213;-79
2023/05/12 10:51:49;;;;;;;4.40;3.43;;;;;;;17.51;100.00;99064.34;4973500;28;20200;-78
2023/05/12 10:54:24;;;;;;;4.90;3.83;;;;;;;17.41;100.00;99056.31;4972615;28;20655;-79
2023/05/12 10:56:58;;;;;;;5.43;3.77;;;;;;;17.44;100.00;99059.56;4976828;28;20219;-79
2023/05/12 10:59:27;;;;;;;4.17;3.53;;;;;;;17.25;100.00;99067.63;4974291;28;20231;-79
2023/05/12 11:01:59;;;;;;;7.10;3.93;;;;;;;17.13;100.00;99063.41;4973739;28;20206;-79
2023/05/12 11:04:41;;;;;;;11.23;3.70;;;;;;;17.51;100.00;99064.34;4972266;28;20192;-79
2023/05/12 11:07:11;;;;;;;4.10;3.40;;;;;;;17.42;100.00;99058.84;4969704;28;20203;-79
2023/05/12 11:09:43;;;;;;;5.40;3.57;;;;;;;17.67;100.00;99061.91;4969175;28;20192;-79
2023/05/12 11:12:28;;;;;;;4.40;3.53;;;;;;;17.58;100.00;99066.31;4970749;28;20208;-78
2023/05/12 11:15:00;;;;;;;5.33;3.77;;;;;;;17.50;100.00;99068.00;4974221;28;20200;-78
2023/05/12 11:17:28;;;;;;;5.47;4.50;;;;;;;17.59;100.00;99065.31;4970398;28;20274;-79
2023/05/12 11:19:57;;;;;;;6.27;4.60;;;;;;;17.58;100.00;99066.31;4976345;28;20250;-79
2023/05/12 11:22:25;;;;;;;4.37;3.97;;;;;;;17.64;100.00;99068.38;4971416;28;20231;-79
2023/05/12 11:24:54;;;;;;;4.33;3.47;;;;;;;17.78;100.00;99064.44;4972986;28;20206;-79
2023/05/12 11:27:23;;;;;;;6.00;3.67;;;;;;;17.83;100.00;99075.56;4973799;28;20246;-79
2023/05/12 11:29:58;;;;;;;6.20;4.57;;;;;;;17.90;100.00;99078.50;4973593;28;20199;-80
2023/05/12 11:32:28;;;;;;;6.33;5.30;;;;;;;17.93;100.00;99071.00;4969220;28;20204;-79
2023/05/12 11:35:08;;;;;;;8.90;5.30;;;;;;;18.09;100.00;99082.94;4973709;28;20746;-79